Time;durP1;ratioP1;P1;durP2;ratioP2;P2;SDS_P1;SDS_P2;PMS_P1;PMS_P2;Temp;Humidity;BMP_temperature;BMP_pressure;BME280_temperature;BME280_humidity;BME280_pressure;Samples;Min_cycle;Max_cycle;Signal;HPM_P1;HPM_P2
2021/11/29 00:01:18;;;;;;;;;;;3.60;99.90;;;;;;5054925;28;20033;-67
2021/11/29 00:03:44;;;;;;;9.32;5.65;;;3.60;99.90;;;;;;5054810;28;20389;-67
2021/11/29 00:06:09;;;;;;;8.73;5.72;;;3.80;99.90;;;;;;5054346;28;20059;-66
2021/11/29 00:08:35;;;;;;;11.20;6.20;;;3.80;99.90;;;;;;5054213;28;20025;-66
2021/11/29 00:11:01;;;;;;;12.80;6.67;;;3.80;99.90;;;;;;5036242;28;20017;-67
2021/11/29 00:13:26;;;;;;;10.30;6.23;;;3.80;99.90;;;;;;5054051;28;20465;-67
2021/11/29 00:15:52;;;;;;;10.40;6.30;;;3.70;99.90;;;;;;5056646;28;20497;-66
2021/11/29 00:18:18;;;;;;;11.52;6.65;;;3.60;99.90;;;;;;5054094;28;20036;-67
2021/11/29 00:20:44;;;;;;;10.07;6.53;;;3.60;99.90;;;;;;5053724;28;20055;-67
2021/11/29 00:23:14;;;;;;;10.30;6.13;;;3.50;99.90;;;;;;5053967;28;20024;-67
2021/11/29 00:25:44;;;;;;;12.15;7.30;;;3.40;99.90;;;;;;5036102;28;20515;-67
2021/11/29 00:28:11;;;;;;;11.13;6.57;;;3.40;99.90;;;;;;5035591;28;20032;-66
2021/11/29 00:30:37;;;;;;;;;;;3.40;99.90;;;;;;5054045;28;20044;-67
2021/11/29 00:33:04;;;;;;;9.20;6.28;;;3.40;99.90;;;;;;5053766;28;19919;-66
2021/11/29 00:35:30;;;;;;;;;;;3.40;99.90;;;;;;5036095;28;20033;-66
2021/11/29 00:37:55;;;;;;;8.75;6.03;;;3.40;99.90;;;;;;5035515;28;20003;-65
2021/11/29 00:40:21;;;;;;;9.57;6.40;;;3.40;99.90;;;;;;5053820;28;20475;-66
2021/11/29 00:42:47;;;;;;;10.10;6.18;;;3.50;99.90;;;;;;5035443;28;20028;-67
2021/11/29 00:45:12;;;;;;;8.60;5.77;;;3.40;99.90;;;;;;5035681;28;20474;-67
2021/11/29 00:47:38;;;;;;;10.50;6.47;;;3.50;99.90;;;;;;5053481;28;20104;-66
2021/11/29 00:50:05;;;;;;;10.40;7.05;;;3.70;99.90;;;;;;5035548;28;20024;-67
2021/11/29 00:52:31;;;;;;;9.40;5.85;;;3.80;99.90;;;;;;5053351;28;20086;-67
2021/11/29 00:54:57;;;;;;;9.47;6.13;;;3.70;99.90;;;;;;5035263;28;20112;-67
2021/11/29 00:57:22;;;;;;;8.97;5.53;;;3.60;99.90;;;;;;5053004;28;20095;-66
2021/11/29 00:59:49;;;;;;;9.60;5.73;;;3.70;99.90;;;;;;5053403;28;20076;-66
2021/11/29 01:02:16;;;;;;;8.43;5.75;;;3.50;99.90;;;;;;5053072;28;20082;-66
2021/11/29 01:04:42;;;;;;;9.80;6.65;;;3.50;99.90;;;;;;5053234;28;20029;-66
2021/11/29 01:07:08;;;;;;;9.82;6.40;;;3.40;99.90;;;;;;5035047;28;20017;-66
2021/11/29 01:09:35;;;;;;;9.73;5.78;;;3.30;99.90;;;;;;5035271;28;20056;-66
2021/11/29 01:12:01;;;;;;;10.27;6.43;;;3.20;99.90;;;;;;5035391;28;20408;-66
2021/11/29 01:14:27;;;;;;;8.23;6.25;;;3.20;99.90;;;;;;5053378;28;20031;-67
2021/11/29 01:16:52;;;;;;;11.63;6.77;;;3.30;99.90;;;;;;5052556;28;20099;-66
2021/11/29 01:19:18;;;;;;;9.67;6.40;;;3.30;99.90;;;;;;5035942;28;20417;-67
2021/11/29 01:21:44;;;;;;;12.07;6.90;;;3.30;99.90;;;;;;5053290;28;20083;-67
2021/11/29 01:24:09;;;;;;;10.10;6.30;;;3.20;99.90;;;;;;5053509;28;20029;-67
2021/11/29 01:26:35;;;;;;;9.90;6.20;;;3.30;99.90;;;;;;5055592;28;20021;-67
2021/11/29 01:29:01;;;;;;;10.90;6.90;;;3.50;99.90;;;;;;5038749;28;20123;-66
2021/11/29 01:31:27;;;;;;;10.40;6.70;;;3.70;99.90;;;;;;5055943;28;20263;-66
2021/11/29 01:33:53;;;;;;;9.82;6.68;;;3.50;99.90;;;;;;5053823;28;20021;-65
2021/11/29 01:36:18;;;;;;;8.95;6.30;;;3.60;99.90;;;;;;5052933;28;20134;-66
2021/11/29 01:38:44;;;;;;;10.10;6.73;;;3.60;99.90;;;;;;5053829;28;20047;-66
2021/11/29 01:41:12;;;;;;;11.63;6.73;;;3.60;99.90;;;;;;5053077;28;20037;-66
2021/11/29 01:43:38;;;;;;;9.93;6.68;;;3.60;99.90;;;;;;5035033;28;20029;-66
2021/11/29 01:46:04;;;;;;;10.10;6.73;;;3.40;99.90;;;;;;5053106;28;20441;-66
2021/11/29 01:48:30;;;;;;;10.05;6.20;;;3.30;99.90;;;;;;5054752;28;20025;-66
2021/11/29 01:50:58;;;;;;;9.50;5.55;;;3.10;99.90;;;;;;5053417;28;20474;-66
2021/11/29 01:53:26;;;;;;;10.57;5.68;;;3.10;99.90;;;;;;5055670;28;20056;-66
2021/11/29 01:55:56;;;;;;;10.35;5.85;;;3.10;99.90;;;;;;5056108;28;20028;-66
2021/11/29 01:58:22;;;;;;;9.63;5.72;;;3.10;99.90;;;;;;5054554;28;20025;-66
2021/11/29 02:00:51;;;;;;;10.80;6.37;;;3.10;99.90;;;;;;5053673;28;20024;-66
2021/11/29 02:03:18;;;;;;;11.30;7.20;;;3.10;99.90;;;;;;5052478;28;20025;-66
2021/11/29 02:05:44;;;;;;;12.68;7.68;;;2.90;99.90;;;;;;5052854;28;20017;-66
2021/11/29 02:08:10;;;;;;;10.00;6.03;;;3.00;99.90;;;;;;5034568;28;20029;-66
2021/11/29 02:10:37;;;;;;;13.32;7.57;;;2.90;99.90;;;;;;5034439;28;20029;-66
2021/11/29 02:13:02;;;;;;;;;;;2.80;99.90;;;;;;5052831;28;20040;-66
2021/11/29 02:15:28;;;;;;;10.52;6.70;;;2.80;99.90;;;;;;5052569;28;19904;-66
2021/11/29 02:17:53;;;;;;;10.67;6.57;;;2.80;99.90;;;;;;5052211;28;20029;-66
2021/11/29 02:20:20;;;;;;;13.97;7.70;;;2.80;99.90;;;;;;5052495;28;20033;-66
2021/11/29 02:22:47;;;;;;;11.48;7.05;;;2.80;99.90;;;;;;5034175;28;20029;-66
2021/11/29 02:25:18;;;;;;;12.15;7.72;;;2.80;99.90;;;;;;5052506;28;20036;-66
2021/11/29 02:27:46;;;;;;;11.25;7.05;;;2.90;99.90;;;;;;5053326;28;20037;-66
2021/11/29 02:30:14;;;;;;;11.18;7.07;;;2.80;99.90;;;;;;5055938;28;20024;-66
2021/11/29 02:32:40;;;;;;;13.32;7.72;;;2.80;99.90;;;;;;5055932;28;20366;-66
2021/11/29 02:35:06;;;;;;;15.03;8.73;;;2.80;99.90;;;;;;5038534;28;20146;-66
2021/11/29 02:37:31;;;;;;;15.00;9.13;;;2.70;99.90;;;;;;5056052;28;20025;-66
2021/11/29 02:39:57;;;;;;;17.20;9.63;;;2.80;99.90;;;;;;5056186;28;20039;-66
2021/11/29 02:42:24;;;;;;;14.88;8.80;;;2.80;99.90;;;;;;5056167;28;20493;-66
2021/11/29 02:44:50;;;;;;;13.60;7.85;;;2.80;99.90;;;;;;5038034;28;20503;-66
2021/11/29 02:47:15;;;;;;;22.10;11.02;;;2.80;99.90;;;;;;5055732;28;20038;-66
2021/11/29 02:49:41;;;;;;;16.17;9.13;;;2.80;99.90;;;;;;5055912;28;20130;-66
2021/11/29 02:52:11;;;;;;;13.60;8.87;;;2.80;99.90;;;;;;5056319;28;20450;-65
2021/11/29 02:54:40;;;;;;;16.90;9.05;;;2.80;99.90;;;;;;5056136;28;20044;-66
2021/11/29 02:57:11;;;;;;;14.30;8.70;;;2.90;99.90;;;;;;5055784;28;20029;-66
2021/11/29 02:59:38;;;;;;;16.10;8.90;;;2.90;99.90;;;;;;5056357;28;20069;-66
2021/11/29 03:02:06;;;;;;;16.60;9.35;;;3.00;99.90;;;;;;5056223;28;20025;-66
2021/11/29 03:04:33;;;;;;;16.98;9.38;;;2.90;99.90;;;;;;5056364;28;20021;-66
2021/11/29 03:07:00;;;;;;;13.55;8.75;;;3.00;99.90;;;;;;5056836;28;20021;-66
2021/11/29 03:09:26;;;;;;;17.92;10.43;;;2.90;99.90;;;;;;5055480;28;20048;-66
2021/11/29 03:11:53;;;;;;;17.52;10.38;;;3.10;99.90;;;;;;5055492;28;20488;-66
2021/11/29 03:14:19;;;;;;;16.77;9.82;;;3.00;99.90;;;;;;5038350;28;20445;-66
2021/11/29 03:16:46;;;;;;;19.27;10.45;;;2.90;99.90;;;;;;5037696;28;20032;-66
2021/11/29 03:19:11;;;;;;;18.85;10.23;;;2.90;99.90;;;;;;5057157;28;20025;-66
2021/11/29 03:21:37;;;;;;;19.30;11.10;;;3.00;99.90;;;;;;5055465;28;20021;-66
2021/11/29 03:24:06;;;;;;;17.65;9.70;;;3.10;99.90;;;;;;5055294;28;20043;-66
2021/11/29 03:26:33;;;;;;;19.15;10.63;;;3.10;99.90;;;;;;5056033;28;20358;-66
2021/11/29 03:29:11;;;;;;;16.20;9.43;;;3.00;99.90;;;;;;5056296;28;20029;-66
2021/11/29 03:31:38;;;;;;;18.25;10.52;;;3.00;99.90;;;;;;5055117;28;20013;-66
2021/11/29 03:34:05;;;;;;;;;;;2.90;99.90;;;;;;5037388;28;20425;-66
2021/11/29 03:36:32;;;;;;;17.58;9.82;;;2.90;99.90;;;;;;5054909;28;19911;-66
2021/11/29 03:39:01;;;;;;;20.85;11.00;;;3.00;99.90;;;;;;5054274;28;20033;-67
2021/11/29 03:41:27;;;;;;;20.15;11.77;;;2.90;99.90;;;;;;5054554;28;20029;-65
2021/11/29 03:43:54;;;;;;;19.23;11.07;;;2.90;99.90;;;;;;5054473;28;20116;-66
2021/11/29 03:46:19;;;;;;;17.30;10.93;;;2.90;99.90;;;;;;5054478;28;20548;-66
2021/11/29 03:48:45;;;;;;;18.30;11.10;;;3.00;99.90;;;;;;5054305;28;20029;-66
2021/11/29 03:51:11;;;;;;;19.98;10.57;;;2.90;99.90;;;;;;5054363;28;20021;-65
2021/11/29 03:53:37;;;;;;;19.07;10.57;;;3.00;99.90;;;;;;5054506;28;20024;-66
2021/11/29 03:56:03;;;;;;;18.17;10.70;;;3.00;99.90;;;;;;5054695;28;20474;-66
2021/11/29 03:58:29;;;;;;;20.05;12.30;;;3.00;99.90;;;;;;5036226;28;20033;-66
2021/11/29 04:00:54;;;;;;;16.63;9.87;;;3.00;99.90;;;;;;5054171;28;20485;-66
2021/11/29 04:03:21;;;;;;;19.27;10.30;;;3.10;99.90;;;;;;5053994;28;20025;-66
2021/11/29 04:05:47;;;;;;;;;;;3.10;99.90;;;;;;5054837;28;20586;-66
2021/11/29 04:08:13;;;;;;;13.70;7.63;;;3.10;99.90;;;;;;5053898;28;19912;-66
2021/11/29 04:10:38;;;;;;;11.85;7.20;;;3.20;99.90;;;;;;5054483;28;20393;-65
2021/11/29 04:13:04;;;;;;;14.23;7.93;;;3.30;99.90;;;;;;5054109;28;20128;-66
2021/11/29 04:15:30;;;;;;;17.52;7.32;;;3.20;99.90;;;;;;5054155;28;20489;-66
2021/11/29 04:17:56;;;;;;;14.20;6.63;;;3.30;99.90;;;;;;5054191;28;20025;-66
2021/11/29 04:20:23;;;;;;;12.13;6.83;;;3.30;99.90;;;;;;5054006;28;20433;-66
2021/11/29 04:22:49;;;;;;;13.40;7.50;;;3.30;99.90;;;;;;5054228;28;20056;-66
2021/11/29 04:25:18;;;;;;;15.90;8.02;;;3.20;99.90;;;;;;5053728;28;20017;-66
2021/11/29 04:27:48;;;;;;;14.90;7.00;;;3.00;99.90;;;;;;5053359;28;20025;-66
2021/11/29 04:30:18;;;;;;;13.98;7.80;;;2.90;99.90;;;;;;5053629;28;20028;-66
2021/11/29 04:32:46;;;;;;;13.73;7.60;;;2.90;99.90;;;;;;5053666;28;20104;-66
2021/11/29 04:35:11;;;;;;;18.45;8.48;;;2.80;99.90;;;;;;5036175;28;20433;-66
2021/11/29 04:37:37;;;;;;;14.30;8.33;;;2.80;99.90;;;;;;5053457;28;20048;-66
2021/11/29 04:40:04;;;;;;;16.30;9.30;;;2.90;99.90;;;;;;5053413;28;20021;-66
2021/11/29 04:42:30;;;;;;;15.43;8.27;;;2.80;99.90;;;;;;5053238;28;20041;-65
2021/11/29 04:44:56;;;;;;;17.37;8.83;;;2.80;99.90;;;;;;5056033;28;20021;-67
2021/11/29 04:47:22;;;;;;;19.47;8.93;;;3.00;99.90;;;;;;5053426;28;20282;-66
2021/11/29 04:49:47;;;;;;;17.65;9.90;;;3.00;99.90;;;;;;5034978;28;20048;-65
2021/11/29 04:52:13;;;;;;;16.93;9.47;;;3.00;99.90;;;;;;5053339;28;20074;-66
2021/11/29 04:54:39;;;;;;;18.10;10.40;;;2.80;99.90;;;;;;5035369;28;20139;-65
2021/11/29 04:57:05;;;;;;;22.60;10.97;;;2.70;99.90;;;;;;5053132;28;20029;-65
2021/11/29 04:59:30;;;;;;;20.97;11.80;;;2.70;99.90;;;;;;5053375;28;20133;-65
2021/11/29 05:01:56;;;;;;;21.53;11.07;;;2.70;99.90;;;;;;5035507;28;20260;-65
2021/11/29 05:04:22;;;;;;;19.55;10.80;;;2.60;99.90;;;;;;5053589;28;20434;-64
2021/11/29 05:06:48;;;;;;;20.65;11.82;;;2.50;99.90;;;;;;5053318;28;20025;-66
2021/11/29 05:09:14;;;;;;;21.80;11.75;;;2.50;99.90;;;;;;5035112;28;20032;-66
2021/11/29 05:11:40;;;;;;;20.42;10.93;;;2.40;99.90;;;;;;5053113;28;20048;-67
2021/11/29 05:14:06;;;;;;;24.30;12.00;;;2.40;99.90;;;;;;5053769;28;20017;-68
2021/11/29 05:16:32;;;;;;;23.10;12.05;;;2.40;99.90;;;;;;5034963;28;20090;-68
2021/11/29 05:18:58;;;;;;;25.02;11.57;;;2.40;99.90;;;;;;5053320;28;20060;-68
2021/11/29 05:21:24;;;;;;;24.27;11.40;;;2.40;99.90;;;;;;5053194;28;20082;-68
2021/11/29 05:23:51;;;;;;;23.63;11.98;;;2.40;99.90;;;;;;5052807;28;20033;-68
2021/11/29 05:26:24;;;;;;;23.27;12.40;;;2.40;99.90;;;;;;5035199;28;20163;-67
2021/11/29 05:28:52;;;;;;;19.75;10.35;;;2.40;99.90;;;;;;5053269;28;20033;-66
2021/11/29 05:31:19;;;;;;;20.15;11.07;;;2.60;99.90;;;;;;5035380;28;20082;-65
2021/11/29 05:33:45;;;;;;;23.75;12.65;;;2.60;99.90;;;;;;5053042;28;20029;-65
2021/11/29 05:36:10;;;;;;;22.70;11.65;;;2.70;99.90;;;;;;5052923;28;20033;-65
2021/11/29 05:38:36;;;;;;;24.33;11.47;;;2.70;99.90;;;;;;5053047;28;20064;-65
2021/11/29 05:41:03;;;;;;;25.45;12.07;;;2.70;99.90;;;;;;5053481;28;20039;-65
2021/11/29 05:43:28;;;;;;;24.48;12.13;;;2.60;99.90;;;;;;5035423;28;20032;-65
2021/11/29 05:45:56;;;;;;;24.83;13.02;;;2.50;99.90;;;;;;5053374;28;20082;-65
2021/11/29 05:48:22;;;;;;;25.95;11.50;;;2.40;99.90;;;;;;5053805;28;20025;-65
2021/11/29 05:50:48;;;;;;;25.17;12.23;;;2.20;99.90;;;;;;5053465;28;20017;-67
2021/11/29 05:53:14;;;;;;;26.08;12.13;;;2.10;99.90;;;;;;5054790;28;20036;-66
2021/11/29 05:55:39;;;;;;;41.50;17.80;;;2.10;99.90;;;;;;5036262;28;20036;-66
2021/11/29 05:58:05;;;;;;;35.87;15.50;;;2.10;99.90;;;;;;5055272;28;20029;-66
2021/11/29 06:00:31;;;;;;;36.30;16.00;;;2.00;99.90;;;;;;5055141;28;20024;-66
2021/11/29 06:02:57;;;;;;;25.97;13.37;;;1.90;99.90;;;;;;5058574;28;20275;-66
2021/11/29 06:05:26;;;;;;;27.67;14.10;;;1.90;99.90;;;;;;5059864;28;20438;-66
2021/11/29 06:07:52;;;;;;;31.92;14.48;;;1.90;99.90;;;;;;5058663;28;20393;-66
2021/11/29 06:10:17;;;;;;;30.23;15.15;;;1.80;99.90;;;;;;5059367;28;20102;-66
2021/11/29 06:12:44;;;;;;;31.70;14.93;;;1.80;99.90;;;;;;5059452;28;20108;-67
2021/11/29 06:15:11;;;;;;;31.17;15.38;;;1.80;99.90;;;;;;5042323;28;20030;-67
2021/11/29 06:17:37;;;;;;;27.73;13.65;;;1.80;99.90;;;;;;5058078;28;20037;-64
2021/11/29 06:20:05;;;;;;;28.67;13.55;;;1.80;99.90;;;;;;5056934;28;20107;-67
2021/11/29 06:22:31;;;;;;;30.90;14.65;;;1.80;99.90;;;;;;5057487;28;20036;-65
2021/11/29 06:24:57;;;;;;;26.65;13.23;;;1.70;99.90;;;;;;5056523;28;20017;-67
2021/11/29 06:27:23;;;;;;;37.63;17.80;;;1.70;99.90;;;;;;5037797;28;20033;-64
2021/11/29 06:29:48;;;;;;;42.40;21.80;;;1.60;99.90;;;;;;5055616;28;20740;-65
2021/11/29 06:32:14;;;;;;;27.73;14.65;;;1.70;99.90;;;;;;5055916;28;20025;-65
2021/11/29 06:34:40;;;;;;;31.15;16.10;;;1.70;99.90;;;;;;5056201;28;20044;-65
2021/11/29 06:37:07;;;;;;;29.67;13.10;;;1.70;99.90;;;;;;5056351;28;20032;-67
2021/11/29 06:39:35;;;;;;;26.15;13.65;;;1.70;99.90;;;;;;5038851;28;20115;-66
2021/11/29 06:42:02;;;;;;;31.42;13.60;;;1.60;99.90;;;;;;5055926;28;20100;-65
2021/11/29 06:44:27;;;;;;;27.92;14.20;;;1.60;99.90;;;;;;5055750;28;20024;-66
2021/11/29 06:46:53;;;;;;;27.13;13.57;;;1.50;99.90;;;;;;5055334;28;20021;-66
2021/11/29 06:49:19;;;;;;;28.38;12.88;;;1.50;99.90;;;;;;5056110;28;20029;-66
2021/11/29 06:51:44;;;;;;;30.73;13.53;;;1.50;99.90;;;;;;5055361;28;20105;-65
2021/11/29 06:54:10;;;;;;;28.03;13.60;;;1.50;99.90;;;;;;5056140;28;20028;-65
2021/11/29 06:56:36;;;;;;;30.40;13.83;;;1.50;99.90;;;;;;5056183;28;20036;-65
2021/11/29 06:59:02;;;;;;;32.40;13.43;;;1.50;99.90;;;;;;5056036;28;20117;-66
2021/11/29 07:01:27;;;;;;;32.78;15.65;;;1.50;99.90;;;;;;5055429;28;20021;-66
2021/11/29 07:03:54;;;;;;;26.73;13.00;;;1.50;99.90;;;;;;5057112;28;20493;-66
2021/11/29 07:06:19;;;;;;;30.15;14.50;;;1.40;99.90;;;;;;5055608;28;20367;-66
2021/11/29 07:08:45;;;;;;;33.97;15.20;;;1.40;99.90;;;;;;5055391;28;20075;-66
2021/11/29 07:11:11;;;;;;;30.10;13.90;;;1.40;99.90;;;;;;5055563;28;20115;-66
2021/11/29 07:13:37;;;;;;;26.23;13.23;;;1.40;99.90;;;;;;5054614;28;20036;-66
2021/11/29 07:16:03;;;;;;;26.03;13.37;;;1.40;99.90;;;;;;5037130;28;20264;-65
2021/11/29 07:18:29;;;;;;;28.05;13.25;;;1.40;99.90;;;;;;5055119;28;20588;-67
2021/11/29 07:20:55;;;;;;;28.23;13.32;;;1.40;99.90;;;;;;5055655;28;20454;-64
2021/11/29 07:23:21;;;;;;;28.90;14.30;;;1.50;99.90;;;;;;5055346;28;20381;-64
2021/11/29 07:25:47;;;;;;;29.67;14.48;;;1.50;99.90;;;;;;5055718;28;20074;-65
2021/11/29 07:28:13;;;;;;;29.27;13.30;;;1.40;99.90;;;;;;5037696;28;20119;-65
2021/11/29 07:30:39;;;;;;;26.67;12.97;;;1.40;99.90;;;;;;5055153;28;20036;-64
2021/11/29 07:33:04;;;;;;;28.13;12.63;;;1.40;99.90;;;;;;5055521;28;20481;-64
2021/11/29 07:35:31;;;;;;;31.70;14.13;;;1.40;99.90;;;;;;5056196;28;20154;-65
2021/11/29 07:37:57;;;;;;;31.40;14.38;;;1.40;99.90;;;;;;5055045;28;20033;-65
2021/11/29 07:40:28;;;;;;;33.75;12.88;;;1.40;99.90;;;;;;5054735;28;20126;-65
2021/11/29 07:42:55;;;;;;;29.98;14.00;;;1.40;99.90;;;;;;5054792;28;20021;-65
2021/11/29 07:45:21;;;;;;;32.53;15.05;;;1.40;99.90;;;;;;5054690;28;20021;-65
2021/11/29 07:47:46;;;;;;;31.73;14.23;;;1.40;99.90;;;;;;5054938;28;20025;-66
2021/11/29 07:50:15;;;;;;;30.00;14.77;;;1.50;99.90;;;;;;5055166;28;20021;-65
2021/11/29 07:52:42;;;;;;;28.77;14.02;;;1.50;99.90;;;;;;5054967;28;20031;-65
2021/11/29 07:55:11;;;;;;;32.78;16.42;;;1.50;99.90;;;;;;5055314;28;20066;-65
2021/11/29 07:57:37;;;;;;;33.55;14.85;;;1.70;99.90;;;;;;5053948;28;20048;-65
2021/11/29 08:00:06;;;;;;;33.25;15.50;;;1.60;99.90;;;;;;5054447;28;20105;-66
2021/11/29 08:02:33;;;;;;;30.95;13.90;;;1.60;99.90;;;;;;5036673;28;20025;-65
2021/11/29 08:04:59;;;;;;;29.77;14.20;;;1.60;99.90;;;;;;5054140;28;20029;-65
2021/11/29 08:07:24;;;;;;;31.88;14.75;;;1.70;99.90;;;;;;5054399;28;20044;-66
2021/11/29 08:09:50;;;;;;;33.20;14.77;;;1.70;99.90;;;;;;5054192;28;20036;-65
2021/11/29 08:12:16;;;;;;;32.88;15.60;;;1.90;99.90;;;;;;5054991;28;20155;-65
2021/11/29 08:14:42;;;;;;;32.03;15.00;;;1.90;99.90;;;;;;5054477;28;20029;-65
2021/11/29 08:17:07;;;;;;;27.30;13.43;;;2.10;99.90;;;;;;5054075;28;20259;-66
2021/11/29 08:19:33;;;;;;;30.40;13.63;;;2.20;99.90;;;;;;5053868;28;20072;-66
2021/11/29 08:21:59;;;;;;;24.43;12.80;;;2.40;99.90;;;;;;5053809;28;20053;-66
2021/11/29 08:24:24;;;;;;;28.57;13.53;;;2.50;99.90;;;;;;5036058;28;20256;-65
2021/11/29 08:26:50;;;;;;;24.83;13.77;;;2.60;99.90;;;;;;5053748;28;20059;-65
2021/11/29 08:29:16;;;;;;;24.67;11.73;;;2.70;99.90;;;;;;5036097;28;20542;-65
2021/11/29 08:31:42;;;;;;;25.83;12.73;;;2.90;99.90;;;;;;5054055;28;20251;-66
2021/11/29 08:34:08;;;;;;;23.73;12.43;;;3.00;99.90;;;;;;5053646;28;20036;-65
2021/11/29 08:36:35;;;;;;;23.25;12.07;;;3.00;99.90;;;;;;5035609;28;20053;-65
2021/11/29 08:39:02;;;;;;;24.13;11.88;;;3.00;99.90;;;;;;5054368;28;20054;-65
2021/11/29 08:41:28;;;;;;;22.00;10.82;;;2.90;99.90;;;;;;5053765;28;20118;-65
2021/11/29 08:43:54;;;;;;;;;;;2.90;99.90;;;;;;5053794;28;20052;-65
2021/11/29 08:46:20;;;;;;;24.58;9.93;;;3.00;99.90;;;;;;5035652;28;19947;-66
2021/11/29 08:48:46;;;;;;;20.77;11.23;;;3.00;99.90;;;;;;5054033;28;20385;-66
2021/11/29 08:51:12;;;;;;;19.63;10.00;;;3.10;99.90;;;;;;5054364;28;20029;-65
2021/11/29 08:53:38;;;;;;;22.95;10.60;;;3.10;99.90;;;;;;5035717;28;20143;-64
2021/11/29 08:56:05;;;;;;;22.60;11.05;;;3.10;99.90;;;;;;5053608;28;20091;-65
2021/11/29 08:58:30;;;;;;;21.17;10.38;;;3.20;99.90;;;;;;5053809;28;20048;-65
2021/11/29 09:00:57;;;;;;;19.53;10.40;;;3.30;99.90;;;;;;5053597;28;20534;-66
2021/11/29 09:03:23;;;;;;;23.30;10.73;;;3.30;99.90;;;;;;5053066;28;20021;-65
2021/11/29 09:05:50;;;;;;;21.95;10.93;;;3.40;99.90;;;;;;5053226;28;20389;-65
2021/11/29 09:08:16;;;;;;;19.83;10.25;;;3.40;99.90;;;;;;5053245;28;20052;-65
2021/11/29 09:10:44;;;;;;;18.95;8.95;;;3.40;99.90;;;;;;5053309;28;20075;-65
2021/11/29 09:13:10;;;;;;;17.90;8.40;;;3.50;99.90;;;;;;5053443;28;20037;-65
2021/11/29 09:15:38;;;;;;;13.53;7.57;;;3.50;99.90;;;;;;5053556;28;20032;-65
2021/11/29 09:18:04;;;;;;;16.23;7.45;;;3.50;99.90;;;;;;5053323;28;20029;-65
2021/11/29 09:20:30;;;;;;;19.92;8.38;;;3.60;99.90;;;;;;5053440;28;20021;-65
2021/11/29 09:22:56;;;;;;;14.70;6.95;;;3.70;99.90;;;;;;5052788;28;20043;-65
2021/11/29 09:25:24;;;;;;;15.88;7.40;;;3.70;99.90;;;;;;5052607;28;20500;-65
2021/11/29 09:27:49;;;;;;;13.48;7.18;;;3.60;99.90;;;;;;5034650;28;20037;-66
2021/11/29 09:30:17;;;;;;;12.77;7.07;;;3.70;99.90;;;;;;5052842;28;20021;-66
2021/11/29 09:32:43;;;;;;;12.68;6.80;;;3.80;99.90;;;;;;5052672;28;20028;-65
2021/11/29 09:35:12;;;;;;;14.48;6.88;;;3.90;99.90;;;;;;5052834;28;20492;-65
2021/11/29 09:37:40;;;;;;;15.05;6.90;;;3.80;99.90;;;;;;5052319;28;20032;-65
2021/11/29 09:40:09;;;;;;;13.10;7.20;;;3.90;99.90;;;;;;5052710;28;20109;-65
2021/11/29 09:42:37;;;;;;;16.95;7.10;;;4.00;99.90;;;;;;5052933;28;20116;-65
2021/11/29 09:45:04;;;;;;;14.05;6.57;;;4.00;99.90;;;;;;5052816;28;20025;-65
2021/11/29 09:47:30;;;;;;;15.75;7.28;;;4.10;99.90;;;;;;5053045;28;20025;-65
2021/11/29 09:49:57;;;;;;;12.53;7.13;;;4.10;99.90;;;;;;5052942;28;20049;-66
2021/11/29 09:52:24;;;;;;;15.75;7.25;;;4.10;99.90;;;;;;5053968;28;20078;-65
2021/11/29 09:54:50;;;;;;;18.65;8.27;;;4.00;99.90;;;;;;5053388;28;20045;-66
2021/11/29 09:57:16;;;;;;;15.40;7.30;;;4.00;99.90;;;;;;5052859;28;20430;-65
2021/11/29 09:59:43;;;;;;;15.50;7.50;;;4.00;99.90;;;;;;5052844;28;20534;-67
2021/11/29 10:02:13;;;;;;;16.48;6.15;;;4.20;99.90;;;;;;5035467;28;20075;-65
2021/11/29 10:04:47;;;;;;;14.15;7.05;;;4.40;99.90;;;;;;5053287;28;20416;-66
2021/11/29 10:07:47;;;;;;;12.30;6.20;;;4.50;99.90;;;;;;5053685;28;20053;-64
2021/11/29 10:10:30;;;;;;;12.98;6.55;;;4.50;99.90;;;;;;5053042;28;20024;-66
2021/11/29 10:13:07;;;;;;;12.90;5.00;;;4.30;99.90;;;;;;5052935;28;20056;-65
2021/11/29 10:15:36;;;;;;;10.07;5.28;;;4.20;99.90;;;;;;5053188;28;20025;-67
2021/11/29 10:18:31;;;;;;;11.60;5.97;;;4.00;99.90;;;;;;5053160;28;20029;-66
2021/11/29 10:21:05;;;;;;;11.13;6.07;;;3.90;99.90;;;;;;5052639;28;20029;-67
2021/11/29 10:23:40;;;;;;;12.27;5.43;;;3.80;99.90;;;;;;5052891;28;20548;-66
2021/11/29 10:26:20;;;;;;;11.50;5.50;;;3.70;99.90;;;;;;5034922;28;20037;-65
2021/11/29 10:28:48;;;;;;;17.35;6.47;;;3.90;99.90;;;;;;5052012;28;20033;-66
2021/11/29 10:31:22;;;;;;;12.60;6.07;;;3.90;99.90;;;;;;5052343;28;20021;-66
2021/11/29 10:34:03;;;;;;;11.50;6.20;;;3.90;99.90;;;;;;5052589;28;20032;-67
2021/11/29 10:36:44;;;;;;;15.35;8.60;;;4.00;99.90;;;;;;5052562;28;20025;-68
2021/11/29 10:39:26;;;;;;;19.02;7.88;;;4.20;99.90;;;;;;5052535;28;20029;-68
2021/11/29 10:41:57;;;;;;;10.50;5.43;;;4.40;99.90;;;;;;5052456;28;20351;-68
2021/11/29 10:44:31;;;;;;;7.05;4.95;;;4.30;99.90;;;;;;5033905;28;20031;-68
2021/11/29 10:46:59;;;;;;;10.75;5.72;;;4.30;99.90;;;;;;5052508;28;20370;-67
2021/11/29 10:49:31;;;;;;;8.20;4.53;;;4.20;99.90;;;;;;5054365;28;20025;-67
2021/11/29 10:52:01;;;;;;;17.52;8.88;;;4.20;99.90;;;;;;5055976;28;20025;-67
2021/11/29 10:54:30;;;;;;;10.88;5.30;;;4.30;99.90;;;;;;5037279;28;20104;-67
2021/11/29 10:56:56;;;;;;;7.72;4.57;;;4.30;99.90;;;;;;5055695;28;20409;-67
2021/11/29 10:59:25;;;;;;;16.48;5.70;;;4.10;99.90;;;;;;5055429;28;20056;-68
2021/11/29 11:01:57;;;;;;;16.17;6.32;;;4.10;99.90;;;;;;5056179;28;20021;-67
2021/11/29 11:04:28;;;;;;;11.88;5.15;;;4.00;99.90;;;;;;5037148;28;20021;-67
2021/11/29 11:06:57;;;;;;;12.07;5.20;;;4.10;99.90;;;;;;5055416;28;20021;-67
2021/11/29 11:09:24;;;;;;;11.07;5.18;;;4.10;99.90;;;;;;5055459;28;20028;-68
2021/11/29 11:11:56;;;;;;;10.98;5.70;;;4.10;99.90;;;;;;5037243;28;20036;-67
2021/11/29 11:14:34;;;;;;;10.43;5.88;;;4.10;99.90;;;;;;5055197;28;20071;-67
2021/11/29 11:17:05;;;;;;;10.43;5.68;;;4.20;99.90;;;;;;5055409;28;20398;-67
2021/11/29 11:19:56;;;;;;;8.88;5.15;;;4.10;99.90;;;;;;5056188;28;20058;-67
2021/11/29 11:22:33;;;;;;;10.07;5.38;;;4.10;99.90;;;;;;5043616;28;20060;-67
2021/11/29 11:25:04;;;;;;;10.48;5.50;;;4.20;99.90;;;;;;5036995;28;20454;-67
2021/11/29 11:27:39;;;;;;;13.98;5.75;;;4.20;99.90;;;;;;5055088;28;20028;-67
2021/11/29 11:30:15;;;;;;;9.05;5.30;;;4.40;99.90;;;;;;5055351;28;20483;-67
2021/11/29 11:33:09;;;;;;;9.68;5.72;;;4.40;99.90;;;;;;5054746;28;20093;-68
2021/11/29 11:35:38;;;;;;;26.63;11.02;;;4.50;99.90;;;;;;5050394;28;20064;-68
2021/11/29 11:38:08;;;;;;;11.50;6.03;;;4.60;99.90;;;;;;5054587;28;20025;-68
2021/11/29 11:40:37;;;;;;;10.50;4.95;;;4.60;99.90;;;;;;5054903;28;20474;-66
2021/11/29 11:43:05;;;;;;;14.95;5.70;;;4.60;99.90;;;;;;5054717;28;20055;-68
2021/11/29 11:45:35;;;;;;;8.55;4.95;;;4.50;99.90;;;;;;5036540;28;20036;-68
2021/11/29 11:48:02;;;;;;;8.85;4.93;;;4.50;99.90;;;;;;5054568;28;20029;-66
2021/11/29 11:50:33;;;;;;;9.52;4.93;;;4.50;99.90;;;;;;5036451;28;20025;-67
2021/11/29 11:52:59;;;;;;;11.95;4.85;;;4.40;99.90;;;;;;5036940;28;20032;-67
2021/11/29 11:55:33;;;;;;;11.02;5.50;;;4.30;99.90;;;;;;5036501;28;20127;-68
2021/11/29 11:58:03;;;;;;;9.13;5.13;;;4.30;99.90;;;;;;5055148;28;20116;-68
2021/11/29 12:00:33;;;;;;;9.63;4.68;;;4.20;99.90;;;;;;5053914;28;20027;-68
2021/11/29 12:03:14;;;;;;;9.57;4.72;;;4.10;99.90;;;;;;5054219;28;20388;-68
2021/11/29 12:05:55;;;;;;;11.02;5.43;;;4.10;99.90;;;;;;5036481;28;20106;-68
2021/11/29 12:08:30;;;;;;;12.02;5.20;;;4.10;99.90;;;;;;5054105;28;20102;-68
2021/11/29 12:10:56;;;;;;;11.55;5.45;;;4.10;99.90;;;;;;5054197;28;20021;-68
2021/11/29 12:13:24;;;;;;;9.38;5.28;;;4.10;99.90;;;;;;5054103;28;20497;-68
2021/11/29 12:15:55;;;;;;;11.98;6.82;;;4.10;99.90;;;;;;5054468;28;20037;-68
2021/11/29 12:18:33;;;;;;;10.43;6.18;;;4.10;99.90;;;;;;5037604;28;20046;-68
2021/11/29 12:21:42;;;;;;;10.68;6.60;;;4.10;99.90;;;;;;5055280;28;20100;-68
2021/11/29 12:24:17;;;;;;;10.90;5.57;;;4.10;99.90;;;;;;5037629;28;20025;-68
2021/11/29 12:26:45;;;;;;;9.60;5.72;;;4.10;99.90;;;;;;5055707;28;20022;-67
2021/11/29 12:29:20;;;;;;;10.85;6.00;;;4.20;99.90;;;;;;5055465;28;20047;-67
2021/11/29 12:31:47;;;;;;;10.02;5.95;;;4.10;99.90;;;;;;5037380;28;20025;-68
2021/11/29 12:34:13;;;;;;;10.38;5.38;;;4.10;99.90;;;;;;5054501;28;20103;-68
2021/11/29 12:36:54;;;;;;;11.48;5.32;;;4.10;99.90;;;;;;5036034;28;20028;-68
2021/11/29 12:39:43;;;;;;;10.57;4.53;;;4.10;99.90;;;;;;5054161;28;20355;-67
2021/11/29 12:42:20;;;;;;;9.38;5.00;;;4.10;99.90;;;;;;5054487;28;20055;-67
2021/11/29 12:44:51;;;;;;;7.15;4.65;;;4.20;99.90;;;;;;5035807;28;20535;-68
2021/11/29 12:47:23;;;;;;;10.13;5.15;;;4.20;99.90;;;;;;5053682;28;20025;-68
2021/11/29 12:49:50;;;;;;;9.45;5.15;;;4.20;99.90;;;;;;5053822;28;20021;-68